sensor_id;sensor_type;location;lat;lon;timestamp;P1;durP1;ratioP1;P2;durP2;ratioP2
9689;SDS011;4884;42.614;23.340;2024-02-21T00:00:34;7.93;;;6.60;;
9689;SDS011;4884;42.614;23.340;2024-02-21T00:02:59;8.70;;;6.47;;
9689;SDS011;4884;42.614;23.340;2024-02-21T00:05:27;8.43;;;6.53;;
9689;SDS011;4884;42.614;23.340;2024-02-21T00:07:52;5.87;;;5.23;;
9689;SDS011;4884;42.614;23.340;2024-02-21T00:10:17;6.90;;;6.13;;
9689;SDS011;4884;42.614;23.340;2024-02-21T00:12:43;6.93;;;5.90;;
9689;SDS011;4884;42.614;23.340;2024-02-21T00:15:08;7.33;;;5.37;;
9689;SDS011;4884;42.614;23.340;2024-02-21T00:17:34;5.33;;;4.67;;
9689;SDS011;4884;42.614;23.340;2024-02-21T00:19:59;6.80;;;5.90;;
9689;SDS011;4884;42.614;23.340;2024-02-21T00:22:25;5.47;;;4.93;;
9689;SDS011;4884;42.614;23.340;2024-02-21T00:24:53;6.00;;;5.03;;
9689;SDS011;4884;42.614;23.340;2024-02-21T00:27:18;5.83;;;5.17;;
9689;SDS011;4884;42.614;23.340;2024-02-21T00:29:44;6.20;;;5.33;;
9689;SDS011;4884;42.614;23.340;2024-02-21T00:32:09;6.07;;;5.47;;
9689;SDS011;4884;42.614;23.340;2024-02-21T00:34:34;6.80;;;5.33;;
9689;SDS011;4884;42.614;23.340;2024-02-21T00:37:00;5.70;;;4.83;;
9689;SDS011;4884;42.614;23.340;2024-02-21T00:39:26;5.20;;;4.70;;
9689;SDS011;4884;42.614;23.340;2024-02-21T00:41:51;5.50;;;4.93;;
9689;SDS011;4884;42.614;23.340;2024-02-21T00:44:17;5.70;;;5.03;;
9689;SDS011;4884;42.614;23.340;2024-02-21T00:46:42;8.07;;;6.43;;
9689;SDS011;4884;42.614;23.340;2024-02-21T00:49:07;6.20;;;5.23;;
9689;SDS011;4884;42.614;23.340;2024-02-21T00:51:33;7.00;;;5.77;;
9689;SDS011;4884;42.614;23.340;2024-02-21T00:53:58;7.87;;;5.90;;
9689;SDS011;4884;42.614;23.340;2024-02-21T00:56:24;6.87;;;6.17;;
9689;SDS011;4884;42.614;23.340;2024-02-21T00:58:49;7.40;;;6.07;;
9689;SDS011;4884;42.614;23.340;2024-02-21T01:01:20;7.57;;;5.70;;
9689;SDS011;4884;42.614;23.340;2024-02-21T01:04:05;6.90;;;5.73;;
9689;SDS011;4884;42.614;23.340;2024-02-21T01:06:30;8.33;;;6.57;;
9689;SDS011;4884;42.614;23.340;2024-02-21T01:08:56;8.87;;;6.60;;
9689;SDS011;4884;42.614;23.340;2024-02-21T01:11:21;8.67;;;6.63;;
9689;SDS011;4884;42.614;23.340;2024-02-21T01:13:46;8.93;;;7.60;;
9689;SDS011;4884;42.614;23.340;2024-02-21T01:16:12;9.13;;;8.20;;
9689;SDS011;4884;42.614;23.340;2024-02-21T01:18:37;9.17;;;7.33;;
9689;SDS011;4884;42.614;23.340;2024-02-21T01:21:06;9.03;;;7.80;;
9689;SDS011;4884;42.614;23.340;2024-02-21T01:23:35;10.30;;;8.20;;
9689;SDS011;4884;42.614;23.340;2024-02-21T01:26:01;10.17;;;7.50;;
9689;SDS011;4884;42.614;23.340;2024-02-21T01:28:26;9.40;;;8.20;;
9689;SDS011;4884;42.614;23.340;2024-02-21T01:30:52;9.00;;;7.53;;
9689;SDS011;4884;42.614;23.340;2024-02-21T01:33:17;10.13;;;7.43;;
9689;SDS011;4884;42.614;23.340;2024-02-21T01:35:43;9.97;;;7.60;;
9689;SDS011;4884;42.614;23.340;2024-02-21T01:38:08;10.17;;;7.90;;
9689;SDS011;4884;42.614;23.340;2024-02-21T01:40:34;9.40;;;7.50;;
9689;SDS011;4884;42.614;23.340;2024-02-21T01:42:59;10.73;;;8.20;;
9689;SDS011;4884;42.614;23.340;2024-02-21T01:45:24;11.37;;;8.53;;
9689;SDS011;4884;42.614;23.340;2024-02-21T01:47:50;10.23;;;7.80;;
9689;SDS011;4884;42.614;23.340;2024-02-21T01:50:15;12.33;;;9.57;;
9689;SDS011;4884;42.614;23.340;2024-02-21T01:52:43;13.93;;;10.43;;
9689;SDS011;4884;42.614;23.340;2024-02-21T01:55:11;14.50;;;9.97;;
9689;SDS011;4884;42.614;23.340;2024-02-21T01:57:39;14.03;;;11.30;;
9689;SDS011;4884;42.614;23.340;2024-02-21T02:00:06;15.33;;;11.60;;
9689;SDS011;4884;42.614;23.340;2024-02-21T02:02:32;15.60;;;10.67;;
9689;SDS011;4884;42.614;23.340;2024-02-21T02:04:58;12.80;;;10.23;;
9689;SDS011;4884;42.614;23.340;2024-02-21T02:07:25;15.97;;;11.63;;
9689;SDS011;4884;42.614;23.340;2024-02-21T02:09:51;16.93;;;12.40;;
9689;SDS011;4884;42.614;23.340;2024-02-21T02:12:16;16.83;;;11.77;;
9689;SDS011;4884;42.614;23.340;2024-02-21T02:14:42;16.90;;;12.70;;
9689;SDS011;4884;42.614;23.340;2024-02-21T02:17:07;17.90;;;12.00;;
9689;SDS011;4884;42.614;23.340;2024-02-21T02:19:34;20.23;;;13.67;;
9689;SDS011;4884;42.614;23.340;2024-02-21T02:22:08;18.03;;;13.53;;
9689;SDS011;4884;42.614;23.340;2024-02-21T02:24:38;19.37;;;12.80;;
9689;SDS011;4884;42.614;23.340;2024-02-21T02:27:04;17.03;;;12.47;;
9689;SDS011;4884;42.614;23.340;2024-02-21T02:29:31;17.17;;;13.37;;
9689;SDS011;4884;42.614;23.340;2024-02-21T02:31:57;18.93;;;12.83;;
9689;SDS011;4884;42.614;23.340;2024-02-21T02:34:22;19.67;;;12.70;;
9689;SDS011;4884;42.614;23.340;2024-02-21T02:36:48;16.93;;;13.43;;
9689;SDS011;4884;42.614;23.340;2024-02-21T02:39:14;17.23;;;13.30;;
9689;SDS011;4884;42.614;23.340;2024-02-21T02:41:39;17.80;;;12.57;;
9689;SDS011;4884;42.614;23.340;2024-02-21T02:44:05;16.13;;;12.43;;
9689;SDS011;4884;42.614;23.340;2024-02-21T02:46:30;16.37;;;12.30;;
9689;SDS011;4884;42.614;23.340;2024-02-21T02:48:55;19.70;;;13.77;;
9689;SDS011;4884;42.614;23.340;2024-02-21T02:51:21;19.13;;;13.53;;
9689;SDS011;4884;42.614;23.340;2024-02-21T02:53:46;19.83;;;13.30;;
9689;SDS011;4884;42.614;23.340;2024-02-21T02:56:15;18.43;;;13.77;;
9689;SDS011;4884;42.614;23.340;2024-02-21T02:58:41;20.47;;;15.00;;
9689;SDS011;4884;42.614;23.340;2024-02-21T03:01:08;19.20;;;14.30;;
9689;SDS011;4884;42.614;23.340;2024-02-21T03:03:33;16.73;;;13.57;;
9689;SDS011;4884;42.614;23.340;2024-02-21T03:05:58;18.50;;;12.83;;
9689;SDS011;4884;42.614;23.340;2024-02-21T03:08:24;18.97;;;13.33;;
9689;SDS011;4884;42.614;23.340;2024-02-21T03:10:49;19.40;;;13.93;;
9689;SDS011;4884;42.614;23.340;2024-02-21T03:13:15;16.33;;;13.10;;
9689;SDS011;4884;42.614;23.340;2024-02-21T03:15:40;17.77;;;13.30;;
9689;SDS011;4884;42.614;23.340;2024-02-21T03:18:05;18.43;;;13.87;;
9689;SDS011;4884;42.614;23.340;2024-02-21T03:20:31;17.30;;;12.90;;
9689;SDS011;4884;42.614;23.340;2024-02-21T03:22:57;17.77;;;14.03;;
9689;SDS011;4884;42.614;23.340;2024-02-21T03:25:22;18.10;;;13.93;;
9689;SDS011;4884;42.614;23.340;2024-02-21T03:27:48;20.90;;;14.50;;
9689;SDS011;4884;42.614;23.340;2024-02-21T03:30:13;17.90;;;13.70;;
9689;SDS011;4884;42.614;23.340;2024-02-21T03:32:39;21.67;;;15.23;;
9689;SDS011;4884;42.614;23.340;2024-02-21T03:35:04;19.10;;;15.03;;
9689;SDS011;4884;42.614;23.340;2024-02-21T03:37:30;20.43;;;14.57;;
9689;SDS011;4884;42.614;23.340;2024-02-21T03:39:55;20.77;;;13.03;;
9689;SDS011;4884;42.614;23.340;2024-02-21T03:42:20;19.73;;;12.83;;
9689;SDS011;4884;42.614;23.340;2024-02-21T03:44:46;18.37;;;13.80;;
9689;SDS011;4884;42.614;23.340;2024-02-21T03:47:11;17.37;;;12.77;;
9689;SDS011;4884;42.614;23.340;2024-02-21T03:49:37;19.30;;;14.47;;
9689;SDS011;4884;42.614;23.340;2024-02-21T03:52:02;17.33;;;13.13;;
9689;SDS011;4884;42.614;23.340;2024-02-21T03:54:28;22.43;;;13.97;;
9689;SDS011;4884;42.614;23.340;2024-02-21T03:56:53;16.20;;;13.33;;
9689;SDS011;4884;42.614;23.340;2024-02-21T03:59:19;17.20;;;13.23;;
9689;SDS011;4884;42.614;23.340;2024-02-21T04:01:44;20.17;;;13.87;;
9689;SDS011;4884;42.614;23.340;2024-02-21T04:04:10;17.73;;;13.07;;
9689;SDS011;4884;42.614;23.340;2024-02-21T04:06:35;17.80;;;12.77;;
9689;SDS011;4884;42.614;23.340;2024-02-21T04:09:01;19.40;;;13.63;;
9689;SDS011;4884;42.614;23.340;2024-02-21T04:11:27;18.63;;;13.23;;
9689;SDS011;4884;42.614;23.340;2024-02-21T04:13:52;19.93;;;13.77;;
9689;SDS011;4884;42.614;23.340;2024-02-21T04:16:18;17.40;;;13.03;;
9689;SDS011;4884;42.614;23.340;2024-02-21T04:18:43;17.50;;;13.13;;
9689;SDS011;4884;42.614;23.340;2024-02-21T04:21:09;16.50;;;12.50;;
9689;SDS011;4884;42.614;23.340;2024-02-21T04:23:35;20.47;;;13.30;;
9689;SDS011;4884;42.614;23.340;2024-02-21T04:26:00;18.43;;;12.87;;
9689;SDS011;4884;42.614;23.340;2024-02-21T04:28:26;18.10;;;13.50;;
9689;SDS011;4884;42.614;23.340;2024-02-21T04:30:51;18.93;;;13.07;;
9689;SDS011;4884;42.614;23.340;2024-02-21T04:33:17;19.87;;;13.37;;
9689;SDS011;4884;42.614;23.340;2024-02-21T04:35:43;18.80;;;14.63;;
9689;SDS011;4884;42.614;23.340;2024-02-21T04:38:08;17.93;;;14.33;;
9689;SDS011;4884;42.614;23.340;2024-02-21T04:40:33;20.67;;;13.87;;
9689;SDS011;4884;42.614;23.340;2024-02-21T04:42:59;21.23;;;15.23;;
9689;SDS011;4884;42.614;23.340;2024-02-21T04:45:24;19.03;;;14.43;;
9689;SDS011;4884;42.614;23.340;2024-02-21T04:47:50;25.90;;;17.23;;
9689;SDS011;4884;42.614;23.340;2024-02-21T04:50:15;20.80;;;15.07;;
9689;SDS011;4884;42.614;23.340;2024-02-21T04:52:40;103.53;;;42.77;;
9689;SDS011;4884;42.614;23.340;2024-02-21T04:55:06;35.80;;;22.50;;
9689;SDS011;4884;42.614;23.340;2024-02-21T04:57:32;45.57;;;22.37;;
9689;SDS011;4884;42.614;23.340;2024-02-21T04:59:57;29.07;;;18.80;;
9689;SDS011;4884;42.614;23.340;2024-02-21T05:02:23;22.87;;;16.83;;
9689;SDS011;4884;42.614;23.340;2024-02-21T05:04:49;22.70;;;16.37;;
9689;SDS011;4884;42.614;23.340;2024-02-21T05:07:15;23.37;;;15.87;;
9689;SDS011;4884;42.614;23.340;2024-02-21T05:09:41;22.43;;;15.37;;
9689;SDS011;4884;42.614;23.340;2024-02-21T05:12:07;44.23;;;31.23;;
9689;SDS011;4884;42.614;23.340;2024-02-21T05:14:33;25.03;;;16.67;;
9689;SDS011;4884;42.614;23.340;2024-02-21T05:16:58;18.33;;;14.03;;
9689;SDS011;4884;42.614;23.340;2024-02-21T05:19:23;35.33;;;23.50;;
9689;SDS011;4884;42.614;23.340;2024-02-21T05:21:49;27.63;;;19.80;;
9689;SDS011;4884;42.614;23.340;2024-02-21T05:24:14;30.80;;;21.20;;
9689;SDS011;4884;42.614;23.340;2024-02-21T05:26:40;25.93;;;18.60;;
9689;SDS011;4884;42.614;23.340;2024-02-21T05:29:05;26.40;;;17.63;;
9689;SDS011;4884;42.614;23.340;2024-02-21T05:31:42;27.87;;;19.53;;
9689;SDS011;4884;42.614;23.340;2024-02-21T05:34:20;29.60;;;19.77;;
9689;SDS011;4884;42.614;23.340;2024-02-21T05:36:46;26.20;;;17.37;;
9689;SDS011;4884;42.614;23.340;2024-02-21T05:39:14;21.77;;;15.73;;
9689;SDS011;4884;42.614;23.340;2024-02-21T05:41:40;25.00;;;17.13;;
9689;SDS011;4884;42.614;23.340;2024-02-21T05:44:05;24.97;;;16.40;;
9689;SDS011;4884;42.614;23.340;2024-02-21T05:46:31;21.20;;;15.60;;
9689;SDS011;4884;42.614;23.340;2024-02-21T05:48:56;26.47;;;17.27;;
9689;SDS011;4884;42.614;23.340;2024-02-21T05:51:22;22.70;;;16.43;;
9689;SDS011;4884;42.614;23.340;2024-02-21T05:53:47;22.63;;;17.20;;
9689;SDS011;4884;42.614;23.340;2024-02-21T05:56:13;19.50;;;15.07;;
9689;SDS011;4884;42.614;23.340;2024-02-21T05:58:39;21.43;;;15.33;;
9689;SDS011;4884;42.614;23.340;2024-02-21T06:01:05;23.27;;;14.70;;
9689;SDS011;4884;42.614;23.340;2024-02-21T06:03:32;20.93;;;16.00;;
9689;SDS011;4884;42.614;23.340;2024-02-21T06:05:58;27.23;;;17.10;;
9689;SDS011;4884;42.614;23.340;2024-02-21T06:08:24;18.73;;;14.47;;
9689;SDS011;4884;42.614;23.340;2024-02-21T06:10:49;20.80;;;15.33;;
9689;SDS011;4884;42.614;23.340;2024-02-21T06:13:19;18.40;;;14.40;;
9689;SDS011;4884;42.614;23.340;2024-02-21T06:15:46;20.77;;;16.57;;
9689;SDS011;4884;42.614;23.340;2024-02-21T06:18:11;22.23;;;15.80;;
9689;SDS011;4884;42.614;23.340;2024-02-21T06:20:37;20.00;;;15.80;;
9689;SDS011;4884;42.614;23.340;2024-02-21T06:23:05;20.87;;;15.10;;
9689;SDS011;4884;42.614;23.340;2024-02-21T06:25:31;21.80;;;16.00;;
9689;SDS011;4884;42.614;23.340;2024-02-21T06:27:56;21.33;;;15.83;;
9689;SDS011;4884;42.614;23.340;2024-02-21T06:30:21;30.43;;;26.20;;
9689;SDS011;4884;42.614;23.340;2024-02-21T06:32:47;20.33;;;15.33;;
9689;SDS011;4884;42.614;23.340;2024-02-21T06:35:12;25.57;;;22.90;;
9689;SDS011;4884;42.614;23.340;2024-02-21T06:37:37;27.67;;;22.17;;
9689;SDS011;4884;42.614;23.340;2024-02-21T06:40:03;25.37;;;20.30;;
9689;SDS011;4884;42.614;23.340;2024-02-21T06:42:29;24.70;;;19.63;;
9689;SDS011;4884;42.614;23.340;2024-02-21T06:44:55;20.63;;;17.03;;
9689;SDS011;4884;42.614;23.340;2024-02-21T06:47:21;26.67;;;19.07;;
9689;SDS011;4884;42.614;23.340;2024-02-21T06:49:50;23.27;;;17.37;;
9689;SDS011;4884;42.614;23.340;2024-02-21T06:52:19;23.23;;;17.83;;
9689;SDS011;4884;42.614;23.340;2024-02-21T06:54:45;20.50;;;14.40;;
9689;SDS011;4884;42.614;23.340;2024-02-21T06:57:12;22.97;;;16.23;;
9689;SDS011;4884;42.614;23.340;2024-02-21T06:59:38;21.87;;;16.87;;
9689;SDS011;4884;42.614;23.340;2024-02-21T07:02:03;21.37;;;17.77;;
9689;SDS011;4884;42.614;23.340;2024-02-21T07:04:28;24.07;;;19.90;;
9689;SDS011;4884;42.614;23.340;2024-02-21T07:06:54;21.10;;;16.23;;
9689;SDS011;4884;42.614;23.340;2024-02-21T07:09:19;27.50;;;18.30;;
9689;SDS011;4884;42.614;23.340;2024-02-21T07:11:45;23.70;;;19.30;;
9689;SDS011;4884;42.614;23.340;2024-02-21T07:14:10;19.93;;;15.93;;
9689;SDS011;4884;42.614;23.340;2024-02-21T07:16:36;26.73;;;16.17;;
9689;SDS011;4884;42.614;23.340;2024-02-21T07:19:02;20.50;;;14.57;;
9689;SDS011;4884;42.614;23.340;2024-02-21T07:21:28;18.17;;;15.13;;
9689;SDS011;4884;42.614;23.340;2024-02-21T07:23:53;23.90;;;15.93;;
9689;SDS011;4884;42.614;23.340;2024-02-21T07:26:18;23.77;;;16.40;;
9689;SDS011;4884;42.614;23.340;2024-02-21T07:28:44;21.30;;;16.37;;
9689;SDS011;4884;42.614;23.340;2024-02-21T07:31:09;23.10;;;16.43;;
9689;SDS011;4884;42.614;23.340;2024-02-21T07:33:34;21.60;;;18.37;;
9689;SDS011;4884;42.614;23.340;2024-02-21T07:36:00;35.47;;;28.47;;
9689;SDS011;4884;42.614;23.340;2024-02-21T07:38:26;23.40;;;17.90;;
9689;SDS011;4884;42.614;23.340;2024-02-21T07:40:51;22.80;;;15.43;;
9689;SDS011;4884;42.614;23.340;2024-02-21T07:43:17;20.57;;;15.17;;
9689;SDS011;4884;42.614;23.340;2024-02-21T07:45:42;21.17;;;16.80;;
9689;SDS011;4884;42.614;23.340;2024-02-21T07:48:07;26.70;;;24.03;;
9689;SDS011;4884;42.614;23.340;2024-02-21T07:50:33;22.37;;;17.83;;
9689;SDS011;4884;42.614;23.340;2024-02-21T07:52:58;22.00;;;15.33;;
9689;SDS011;4884;42.614;23.340;2024-02-21T07:55:24;22.53;;;15.67;;
9689;SDS011;4884;42.614;23.340;2024-02-21T07:57:49;23.00;;;16.47;;
9689;SDS011;4884;42.614;23.340;2024-02-21T08:00:15;20.63;;;16.03;;
9689;SDS011;4884;42.614;23.340;2024-02-21T08:02:45;20.83;;;14.83;;
9689;SDS011;4884;42.614;23.340;2024-02-21T08:05:11;23.03;;;15.70;;
9689;SDS011;4884;42.614;23.340;2024-02-21T08:07:37;18.43;;;13.83;;
9689;SDS011;4884;42.614;23.340;2024-02-21T08:10:03;18.33;;;14.70;;
9689;SDS011;4884;42.614;23.340;2024-02-21T08:12:29;20.80;;;17.93;;
9689;SDS011;4884;42.614;23.340;2024-02-21T08:14:54;21.83;;;16.47;;
9689;SDS011;4884;42.614;23.340;2024-02-21T08:17:20;21.13;;;16.30;;
9689;SDS011;4884;42.614;23.340;2024-02-21T08:19:45;21.27;;;16.87;;
9689;SDS011;4884;42.614;23.340;2024-02-21T08:22:11;24.33;;;17.80;;
9689;SDS011;4884;42.614;23.340;2024-02-21T08:24:36;21.03;;;16.20;;
9689;SDS011;4884;42.614;23.340;2024-02-21T08:27:01;21.67;;;16.00;;
9689;SDS011;4884;42.614;23.340;2024-02-21T08:29:27;19.63;;;15.23;;
9689;SDS011;4884;42.614;23.340;2024-02-21T08:31:53;22.10;;;15.53;;
9689;SDS011;4884;42.614;23.340;2024-02-21T08:34:18;19.67;;;15.03;;
9689;SDS011;4884;42.614;23.340;2024-02-21T08:36:44;18.50;;;15.83;;
9689;SDS011;4884;42.614;23.340;2024-02-21T08:39:09;18.73;;;15.40;;
9689;SDS011;4884;42.614;23.340;2024-02-21T08:41:34;21.53;;;15.93;;
9689;SDS011;4884;42.614;23.340;2024-02-21T08:44:00;18.20;;;14.87;;
9689;SDS011;4884;42.614;23.340;2024-02-21T08:46:26;16.60;;;14.43;;
9689;SDS011;4884;42.614;23.340;2024-02-21T08:48:52;16.07;;;13.87;;
9689;SDS011;4884;42.614;23.340;2024-02-21T08:51:20;15.63;;;13.10;;
9689;SDS011;4884;42.614;23.340;2024-02-21T08:53:46;14.03;;;12.53;;
9689;SDS011;4884;42.614;23.340;2024-02-21T08:56:12;14.77;;;12.53;;
9689;SDS011;4884;42.614;23.340;2024-02-21T08:58:38;15.27;;;11.63;;
9689;SDS011;4884;42.614;23.340;2024-02-21T09:01:05;14.47;;;10.53;;
9689;SDS011;4884;42.614;23.340;2024-02-21T09:03:36;12.47;;;10.47;;
9689;SDS011;4884;42.614;23.340;2024-02-21T09:06:03;26.43;;;19.03;;
9689;SDS011;4884;42.614;23.340;2024-02-21T09:08:29;16.00;;;12.13;;
9689;SDS011;4884;42.614;23.340;2024-02-21T09:10:55;12.27;;;10.97;;
9689;SDS011;4884;42.614;23.340;2024-02-21T09:13:20;13.97;;;10.87;;
9689;SDS011;4884;42.614;23.340;2024-02-21T09:15:46;15.47;;;12.23;;
9689;SDS011;4884;42.614;23.340;2024-02-21T09:18:12;14.70;;;11.90;;
9689;SDS011;4884;42.614;23.340;2024-02-21T09:20:37;20.07;;;12.83;;
9689;SDS011;4884;42.614;23.340;2024-02-21T09:23:03;14.10;;;10.13;;
9689;SDS011;4884;42.614;23.340;2024-02-21T09:25:28;12.93;;;11.47;;
9689;SDS011;4884;42.614;23.340;2024-02-21T09:27:54;17.63;;;12.73;;
9689;SDS011;4884;42.614;23.340;2024-02-21T09:30:19;13.43;;;12.10;;
9689;SDS011;4884;42.614;23.340;2024-02-21T09:32:45;12.33;;;11.03;;
9689;SDS011;4884;42.614;23.340;2024-02-21T09:35:11;12.60;;;11.30;;
9689;SDS011;4884;42.614;23.340;2024-02-21T09:37:37;13.13;;;11.67;;
9689;SDS011;4884;42.614;23.340;2024-02-21T09:40:04;15.80;;;11.80;;
9689;SDS011;4884;42.614;23.340;2024-02-21T09:42:39;15.33;;;11.70;;
9689;SDS011;4884;42.614;23.340;2024-02-21T09:47:48;13.47;;;10.93;;
9689;SDS011;4884;42.614;23.340;2024-02-21T09:50:24;12.60;;;11.30;;
9689;SDS011;4884;42.614;23.340;2024-02-21T09:52:51;11.73;;;10.53;;
9689;SDS011;4884;42.614;23.340;2024-02-21T09:55:19;11.67;;;10.47;;
9689;SDS011;4884;42.614;23.340;2024-02-21T09:57:45;12.23;;;10.93;;
9689;SDS011;4884;42.614;23.340;2024-02-21T10:00:11;12.53;;;10.73;;
9689;SDS011;4884;42.614;23.340;2024-02-21T10:02:38;11.17;;;10.00;;
9689;SDS011;4884;42.614;23.340;2024-02-21T10:05:04;11.40;;;9.63;;
9689;SDS011;4884;42.614;23.340;2024-02-21T10:07:33;12.47;;;10.60;;
9689;SDS011;4884;42.614;23.340;2024-02-21T10:10:02;15.67;;;11.57;;
9689;SDS011;4884;42.614;23.340;2024-02-21T10:12:28;12.90;;;11.57;;
9689;SDS011;4884;42.614;23.340;2024-02-21T10:15:03;13.30;;;11.97;;
9689;SDS011;4884;42.614;23.340;2024-02-21T10:17:29;16.23;;;11.13;;
9689;SDS011;4884;42.614;23.340;2024-02-21T10:19:55;12.10;;;10.90;;
9689;SDS011;4884;42.614;23.340;2024-02-21T10:22:31;14.77;;;9.97;;
9689;SDS011;4884;42.614;23.340;2024-02-21T10:25:16;11.70;;;9.90;;
9689;SDS011;4884;42.614;23.340;2024-02-21T10:27:42;9.83;;;8.93;;
9689;SDS011;4884;42.614;23.340;2024-02-21T10:30:12;10.57;;;8.93;;
9689;SDS011;4884;42.614;23.340;2024-02-21T10:32:51;9.03;;;8.13;;
9689;SDS011;4884;42.614;23.340;2024-02-21T10:35:30;9.07;;;8.17;;
9689;SDS011;4884;42.614;23.340;2024-02-21T10:37:57;8.33;;;7.53;;
9689;SDS011;4884;42.614;23.340;2024-02-21T10:40:26;9.20;;;8.27;;
9689;SDS011;4884;42.614;23.340;2024-02-21T10:42:58;8.27;;;7.47;;
9689;SDS011;4884;42.614;23.340;2024-02-21T10:45:32;8.30;;;7.50;;
9689;SDS011;4884;42.614;23.340;2024-02-21T10:48:01;9.53;;;8.63;;
9689;SDS011;4884;42.614;23.340;2024-02-21T10:50:36;10.60;;;8.47;;
9689;SDS011;4884;42.614;23.340;2024-02-21T10:53:20;8.57;;;7.60;;
9689;SDS011;4884;42.614;23.340;2024-02-21T10:56:05;8.13;;;7.13;;
9689;SDS011;4884;42.614;23.340;2024-02-21T10:58:39;7.57;;;6.93;;
9689;SDS011;4884;42.614;23.340;2024-02-21T11:01:05;7.30;;;5.83;;
9689;SDS011;4884;42.614;23.340;2024-02-21T11:03:32;7.67;;;6.97;;
9689;SDS011;4884;42.614;23.340;2024-02-21T11:05:58;8.67;;;7.47;;
9689;SDS011;4884;42.614;23.340;2024-02-21T11:08:24;8.83;;;6.83;;
9689;SDS011;4884;42.614;23.340;2024-02-21T11:10:56;7.87;;;6.83;;
9689;SDS011;4884;42.614;23.340;2024-02-21T11:13:29;8.10;;;7.30;;
9689;SDS011;4884;42.614;23.340;2024-02-21T11:16:05;8.67;;;7.77;;
9689;SDS011;4884;42.614;23.340;2024-02-21T11:18:31;8.40;;;7.60;;
9689;SDS011;4884;42.614;23.340;2024-02-21T11:20:57;6.43;;;5.83;;
9689;SDS011;4884;42.614;23.340;2024-02-21T11:23:25;7.60;;;6.90;;
9689;SDS011;4884;42.614;23.340;2024-02-21T11:26:39;6.40;;;5.90;;
9689;SDS011;4884;42.614;23.340;2024-02-21T11:28:55;6.20;;;5.60;;
9689;SDS011;4884;42.614;23.340;2024-02-21T11:31:25;6.70;;;6.10;;
9689;SDS011;4884;42.614;23.340;2024-02-21T11:33:52;7.63;;;6.93;;
9689;SDS011;4884;42.614;23.340;2024-02-21T11:36:24;8.33;;;7.53;;
9689;SDS011;4884;42.614;23.340;2024-02-21T11:38:51;7.37;;;6.67;;
9689;SDS011;4884;42.614;23.340;2024-02-21T11:41:17;8.23;;;6.63;;
9689;SDS011;4884;42.614;23.340;2024-02-21T11:43:43;6.80;;;6.20;;
9689;SDS011;4884;42.614;23.340;2024-02-21T11:46:08;7.70;;;6.90;;
9689;SDS011;4884;42.614;23.340;2024-02-21T11:48:34;7.30;;;6.53;;
9689;SDS011;4884;42.614;23.340;2024-02-21T11:50:59;7.90;;;6.60;;
9689;SDS011;4884;42.614;23.340;2024-02-21T11:53:26;6.63;;;5.73;;
9689;SDS011;4884;42.614;23.340;2024-02-21T11:55:55;6.27;;;5.67;;
9689;SDS011;4884;42.614;23.340;2024-02-21T11:58:22;7.27;;;6.07;;
9689;SDS011;4884;42.614;23.340;2024-02-21T12:00:48;5.67;;;5.17;;
9689;SDS011;4884;42.614;23.340;2024-02-21T12:03:14;6.40;;;5.70;;
9689;SDS011;4884;42.614;23.340;2024-02-21T12:05:40;7.20;;;6.27;;
9689;SDS011;4884;42.614;23.340;2024-02-21T12:08:06;8.83;;;6.33;;
9689;SDS011;4884;42.614;23.340;2024-02-21T12:10:32;7.63;;;6.83;;
9689;SDS011;4884;42.614;23.340;2024-02-21T12:13:07;8.63;;;6.90;;
9689;SDS011;4884;42.614;23.340;2024-02-21T12:15:36;8.60;;;6.73;;
9689;SDS011;4884;42.614;23.340;2024-02-21T12:18:01;8.13;;;7.27;;
9689;SDS011;4884;42.614;23.340;2024-02-21T12:20:27;8.83;;;6.67;;
9689;SDS011;4884;42.614;23.340;2024-02-21T12:22:52;8.00;;;6.50;;
9689;SDS011;4884;42.614;23.340;2024-02-21T12:25:19;7.67;;;6.80;;
9689;SDS011;4884;42.614;23.340;2024-02-21T12:27:51;9.23;;;6.83;;
9689;SDS011;4884;42.614;23.340;2024-02-21T12:30:17;7.60;;;6.77;;
9689;SDS011;4884;42.614;23.340;2024-02-21T12:32:44;8.47;;;7.07;;
9689;SDS011;4884;42.614;23.340;2024-02-21T12:35:10;8.40;;;7.60;;
9689;SDS011;4884;42.614;23.340;2024-02-21T12:37:35;8.07;;;7.20;;
9689;SDS011;4884;42.614;23.340;2024-02-21T12:40:01;9.80;;;7.57;;
9689;SDS011;4884;42.614;23.340;2024-02-21T12:42:26;12.47;;;8.23;;
9689;SDS011;4884;42.614;23.340;2024-02-21T12:44:53;9.50;;;8.50;;
9689;SDS011;4884;42.614;23.340;2024-02-21T12:47:19;10.40;;;8.70;;
9689;SDS011;4884;42.614;23.340;2024-02-21T12:49:48;11.97;;;9.43;;
9689;SDS011;4884;42.614;23.340;2024-02-21T12:52:13;10.73;;;8.13;;
9689;SDS011;4884;42.614;23.340;2024-02-21T12:54:39;8.90;;;7.40;;
9689;SDS011;4884;42.614;23.340;2024-02-21T12:57:04;12.20;;;7.90;;
9689;SDS011;4884;42.614;23.340;2024-02-21T12:59:30;9.30;;;7.73;;
9689;SDS011;4884;42.614;23.340;2024-02-21T13:01:55;10.83;;;7.60;;
9689;SDS011;4884;42.614;23.340;2024-02-21T13:04:21;8.27;;;6.43;;
9689;SDS011;4884;42.614;23.340;2024-02-21T13:06:49;7.63;;;6.87;;
9689;SDS011;4884;42.614;23.340;2024-02-21T13:09:14;6.57;;;5.87;;
9689;SDS011;4884;42.614;23.340;2024-02-21T13:11:40;6.50;;;5.60;;
9689;SDS011;4884;42.614;23.340;2024-02-21T13:14:07;10.10;;;6.77;;
9689;SDS011;4884;42.614;23.340;2024-02-21T13:16:32;9.47;;;7.63;;
9689;SDS011;4884;42.614;23.340;2024-02-21T13:19:04;8.13;;;5.73;;
9689;SDS011;4884;42.614;23.340;2024-02-21T13:21:30;5.33;;;4.83;;
9689;SDS011;4884;42.614;23.340;2024-02-21T13:23:55;7.03;;;5.43;;
9689;SDS011;4884;42.614;23.340;2024-02-21T13:26:21;6.80;;;4.70;;
9689;SDS011;4884;42.614;23.340;2024-02-21T13:28:47;5.77;;;4.57;;
9689;SDS011;4884;42.614;23.340;2024-02-21T13:31:13;21.53;;;12.03;;
9689;SDS011;4884;42.614;23.340;2024-02-21T13:33:38;13.60;;;9.40;;
9689;SDS011;4884;42.614;23.340;2024-02-21T13:36:04;11.97;;;10.77;;
9689;SDS011;4884;42.614;23.340;2024-02-21T13:38:29;12.90;;;9.07;;
9689;SDS011;4884;42.614;23.340;2024-02-21T13:40:55;16.60;;;15.00;;
9689;SDS011;4884;42.614;23.340;2024-02-21T13:43:20;11.50;;;10.17;;
9689;SDS011;4884;42.614;23.340;2024-02-21T13:45:55;78.67;;;49.20;;
9689;SDS011;4884;42.614;23.340;2024-02-21T13:48:23;13.47;;;12.07;;
9689;SDS011;4884;42.614;23.340;2024-02-21T13:50:49;12.50;;;9.33;;
9689;SDS011;4884;42.614;23.340;2024-02-21T13:53:14;9.73;;;8.60;;
9689;SDS011;4884;42.614;23.340;2024-02-21T13:55:40;9.50;;;8.50;;
9689;SDS011;4884;42.614;23.340;2024-02-21T13:58:06;12.00;;;8.63;;
9689;SDS011;4884;42.614;23.340;2024-02-21T14:00:31;8.87;;;7.87;;
9689;SDS011;4884;42.614;23.340;2024-02-21T14:02:59;8.70;;;7.63;;
9689;SDS011;4884;42.614;23.340;2024-02-21T14:05:26;22.53;;;19.40;;
9689;SDS011;4884;42.614;23.340;2024-02-21T14:07:51;11.13;;;9.53;;
9689;SDS011;4884;42.614;23.340;2024-02-21T14:10:19;11.90;;;10.80;;
9689;SDS011;4884;42.614;23.340;2024-02-21T14:12:47;12.20;;;7.90;;
9689;SDS011;4884;42.614;23.340;2024-02-21T14:15:13;9.90;;;7.83;;
9689;SDS011;4884;42.614;23.340;2024-02-21T14:17:39;8.37;;;7.47;;
9689;SDS011;4884;42.614;23.340;2024-02-21T14:20:05;8.97;;;8.07;;
9689;SDS011;4884;42.614;23.340;2024-02-21T14:22:34;11.70;;;10.37;;
9689;SDS011;4884;42.614;23.340;2024-02-21T14:24:59;15.00;;;10.87;;
9689;SDS011;4884;42.614;23.340;2024-02-21T14:27:25;14.83;;;10.97;;
9689;SDS011;4884;42.614;23.340;2024-02-21T14:29:51;11.67;;;10.33;;
9689;SDS011;4884;42.614;23.340;2024-02-21T14:32:16;15.00;;;12.10;;
9689;SDS011;4884;42.614;23.340;2024-02-21T14:34:41;15.80;;;12.17;;
9689;SDS011;4884;42.614;23.340;2024-02-21T14:37:07;17.77;;;14.83;;
9689;SDS011;4884;42.614;23.340;2024-02-21T14:39:32;16.23;;;14.33;;
9689;SDS011;4884;42.614;23.340;2024-02-21T14:41:59;15.33;;;12.03;;